Terminal Aerodrome Forecast
Issued by NWS

Home | Current Version | Previous Version | Text Only | Print | Product List | Glossary On
Versions: 1 2 3 4 5 6 7 8 9 10 11 12 13 14 15 16 17 18 19 20 21 22 23 24 25 26 27 28 29
000
FTUS44 KFWD 041507 AAB
TAFFTW
TAF AMD
KFTW 041507Z 0415/0512 34008KT P6SM OVC007
      TEMPO 0417/0418 OVC010
     FM041800 35009KT P6SM OVC012
     FM042000 36011KT P6SM OVC025
      TEMPO 0421/0423 BKN035
     FM050600 03006KT 5SM BR VCSH OVC008=

USA.gov is the U.S. government's official web portal to all federal, state and local government web resources and services.